This is the latest recevied weather packets stored in our database for station/object KC1OEK-13. If no packets are shown the sender has not sent any weather packets the latest 10 day(s).
| Time | Temp. | Humidity | Pressure | Rain* | Wind** | Luminosity | Snow |
|---|---|---|---|---|---|---|---|
| 1777742201 | 10° C | 86% | 1013.1 hPa | 0 mm | - | 894 W/m² | - |
| 1777740989 | 8.89° C | 89% | 1013.2 hPa | 0 mm | - | 168 W/m² | - |
| 1777740686 | 8.89° C | 90% | 1013.2 hPa | 0 mm | - | 154 W/m² | - |
| 1777739775 | 8.89° C | 90% | 1013.3 hPa | 0 mm | - | 143 W/m² | - |
| 1777739472 | 8.89° C | 91% | 1013.2 hPa | 1.27 mm | - | 132 W/m² | - |
| 1777739168 | 8.89° C | 91% | 1013.3 hPa | 0 mm | - | 132 W/m² | - |
| 1777738866 | 8.89° C | 91% | 1013.4 hPa | 1.78 mm | - | 134 W/m² | - |
| 1777738563 | 9.44° C | 90% | 1013.3 hPa | 1.78 mm | - | 122 W/m² | - |
| 1777738260 | 9.44° C | 89% | 1013.3 hPa | 1.27 mm | - | 182 W/m² | - |
| 1777737958 | 10° C | 88% | 1013.2 hPa | 1.27 mm | - | 75 W/m² | - |
| 1777737656 | 10° C | 86% | 1013.2 hPa | 0 mm | - | 108 W/m² | - |
| 1777737354 | 10.56° C | 84% | 1012.9 hPa | 0 mm | - | 94 W/m² | - |
| 1777737051 | 11.11° C | 79% | 1013.2 hPa | 0 mm | - | 89 W/m² | - |
| 1777736747 | 11.67° C | 74% | 1012.8 hPa | 0 mm | - | 150 W/m² | - |
| 1777736124 | 12.78° C | 69% | 1012.9 hPa | 0 mm | - | 257 W/m² | - |
| 1777735816 | 12.22° C | 68% | 1012.8 hPa | 0 mm | - | 302 W/m² | - |
| 1777735513 | 12.78° C | 68% | 1013 hPa | 0 mm | - | 191 W/m² | - |
| 1777735211 | 12.22° C | 69% | 1013.1 hPa | 0 mm | - | 227 W/m² | - |
| 1777734907 | 12.22° C | 72% | 1013.1 hPa | 0 mm | - | 206 W/m² | - |
| 1777734605 | 12.22° C | 70% | 1013 hPa | 0 mm | - | 319 W/m² | - |
| 1777734302 | 12.22° C | 70% | 1013 hPa | 0 mm | - | 241 W/m² | - |
| 1777733997 | 12.78° C | 71% | 1013 hPa | 0 mm | - | 235 W/m² | - |
| 1777733695 | 12.78° C | 72% | 1013 hPa | 0 mm | - | 216 W/m² | - |
| 1777733391 | 12.78° C | 72% | 1012.9 hPa | 0 mm | - | 403 W/m² | - |
| 1777733088 | 12.22° C | 74% | 1012.9 hPa | 0 mm | - | 339 W/m² | - |
* Rain latest hour (hover to see other rain measurements)
** Current wind speed in m/s (hover to see current wind gust speed)